sensor_id;sensor_type;location;lat;lon;timestamp;temperature;humidity
16441;DHT22;8330;-33.858;151.184;2022-11-12T00:01:57;26.40;99.90
16441;DHT22;8330;-33.858;151.184;2022-11-12T00:04:28;26.50;99.90
16441;DHT22;8330;-33.858;151.184;2022-11-12T00:06:59;26.60;99.90
16441;DHT22;8330;-33.858;151.184;2022-11-12T00:09:29;26.70;99.90
16441;DHT22;8330;-33.858;151.184;2022-11-12T00:12:01;26.80;99.90
16441;DHT22;8330;-33.858;151.184;2022-11-12T00:14:33;26.80;99.90
16441;DHT22;8330;-33.858;151.184;2022-11-12T00:17:05;26.80;99.90
16441;DHT22;8330;-33.858;151.184;2022-11-12T00:19:35;26.80;99.90
16441;DHT22;8330;-33.858;151.184;2022-11-12T00:22:06;26.70;99.90
16441;DHT22;8330;-33.858;151.184;2022-11-12T00:24:37;26.70;99.90
16441;DHT22;8330;-33.858;151.184;2022-11-12T00:27:08;26.80;99.90
16441;DHT22;8330;-33.858;151.184;2022-11-12T00:29:41;26.90;99.90
16441;DHT22;8330;-33.858;151.184;2022-11-12T00:32:12;26.90;99.90
16441;DHT22;8330;-33.858;151.184;2022-11-12T00:34:44;26.90;99.90
16441;DHT22;8330;-33.858;151.184;2022-11-12T00:37:14;27.00;99.90
16441;DHT22;8330;-33.858;151.184;2022-11-12T00:39:47;27.20;99.90
16441;DHT22;8330;-33.858;151.184;2022-11-12T00:42:18;27.20;99.90
16441;DHT22;8330;-33.858;151.184;2022-11-12T00:44:50;27.20;99.90
16441;DHT22;8330;-33.858;151.184;2022-11-12T00:47:21;27.30;99.90
16441;DHT22;8330;-33.858;151.184;2022-11-12T00:49:52;27.30;99.90
16441;DHT22;8330;-33.858;151.184;2022-11-12T00:52:23;27.40;99.90
16441;DHT22;8330;-33.858;151.184;2022-11-12T00:54:53;27.50;99.90
16441;DHT22;8330;-33.858;151.184;2022-11-12T00:57:25;27.50;99.90
16441;DHT22;8330;-33.858;151.184;2022-11-12T00:59:57;27.60;99.90
16441;DHT22;8330;-33.858;151.184;2022-11-12T01:02:28;27.70;99.90
16441;DHT22;8330;-33.858;151.184;2022-11-12T01:04:59;27.80;99.90
16441;DHT22;8330;-33.858;151.184;2022-11-12T01:07:30;27.80;99.90
16441;DHT22;8330;-33.858;151.184;2022-11-12T01:10:01;27.60;99.90
16441;DHT22;8330;-33.858;151.184;2022-11-12T01:12:32;27.60;99.90
16441;DHT22;8330;-33.858;151.184;2022-11-12T01:15:06;27.60;99.90
16441;DHT22;8330;-33.858;151.184;2022-11-12T01:17:37;27.60;99.90
16441;DHT22;8330;-33.858;151.184;2022-11-12T01:20:08;27.70;99.90
16441;DHT22;8330;-33.858;151.184;2022-11-12T01:22:39;27.70;99.90
16441;DHT22;8330;-33.858;151.184;2022-11-12T01:25:11;27.70;99.90
16441;DHT22;8330;-33.858;151.184;2022-11-12T01:27:41;27.60;99.90
16441;DHT22;8330;-33.858;151.184;2022-11-12T01:30:14;27.50;99.90
16441;DHT22;8330;-33.858;151.184;2022-11-12T01:32:46;27.50;99.90
16441;DHT22;8330;-33.858;151.184;2022-11-12T01:35:17;27.50;99.90
16441;DHT22;8330;-33.858;151.184;2022-11-12T01:37:48;27.50;99.90
16441;DHT22;8330;-33.858;151.184;2022-11-12T01:40:19;27.50;99.90
16441;DHT22;8330;-33.858;151.184;2022-11-12T01:42:52;27.70;99.90
16441;DHT22;8330;-33.858;151.184;2022-11-12T01:45:25;27.70;99.90
16441;DHT22;8330;-33.858;151.184;2022-11-12T01:47:56;27.70;99.90
16441;DHT22;8330;-33.858;151.184;2022-11-12T01:50:28;27.80;99.90
16441;DHT22;8330;-33.858;151.184;2022-11-12T01:53:02;28.00;99.90
16441;DHT22;8330;-33.858;151.184;2022-11-12T01:55:36;27.90;99.90
16441;DHT22;8330;-33.858;151.184;2022-11-12T01:58:09;27.80;99.90
16441;DHT22;8330;-33.858;151.184;2022-11-12T02:00:43;27.90;99.90
16441;DHT22;8330;-33.858;151.184;2022-11-12T02:03:18;28.00;99.90
16441;DHT22;8330;-33.858;151.184;2022-11-12T02:05:52;27.90;99.90
16441;DHT22;8330;-33.858;151.184;2022-11-12T02:08:24;27.90;99.90
16441;DHT22;8330;-33.858;151.184;2022-11-12T02:10:56;27.90;99.90
16441;DHT22;8330;-33.858;151.184;2022-11-12T02:13:27;28.00;99.90
16441;DHT22;8330;-33.858;151.184;2022-11-12T02:16:21;28.10;99.90
16441;DHT22;8330;-33.858;151.184;2022-11-12T02:18:52;28.20;99.90
16441;DHT22;8330;-33.858;151.184;2022-11-12T02:21:24;28.10;99.90
16441;DHT22;8330;-33.858;151.184;2022-11-12T02:23:59;28.10;99.90
16441;DHT22;8330;-33.858;151.184;2022-11-12T02:26:34;28.10;99.90
16441;DHT22;8330;-33.858;151.184;2022-11-12T02:29:06;28.10;99.90
16441;DHT22;8330;-33.858;151.184;2022-11-12T02:31:37;28.00;99.90
16441;DHT22;8330;-33.858;151.184;2022-11-12T02:34:08;28.00;99.90
16441;DHT22;8330;-33.858;151.184;2022-11-12T02:36:41;28.00;99.90
16441;DHT22;8330;-33.858;151.184;2022-11-12T02:39:12;28.00;99.90
16441;DHT22;8330;-33.858;151.184;2022-11-12T02:41:43;28.00;99.90
16441;DHT22;8330;-33.858;151.184;2022-11-12T02:44:13;27.90;99.90
16441;DHT22;8330;-33.858;151.184;2022-11-12T02:46:44;28.00;99.90
16441;DHT22;8330;-33.858;151.184;2022-11-12T02:49:15;28.20;99.90
16441;DHT22;8330;-33.858;151.184;2022-11-12T02:51:48;28.10;99.90
16441;DHT22;8330;-33.858;151.184;2022-11-12T02:54:19;28.30;99.90
16441;DHT22;8330;-33.858;151.184;2022-11-12T02:56:49;28.20;99.90
16441;DHT22;8330;-33.858;151.184;2022-11-12T02:59:20;28.30;99.90
16441;DHT22;8330;-33.858;151.184;2022-11-12T03:01:51;28.20;99.90
16441;DHT22;8330;-33.858;151.184;2022-11-12T03:04:22;28.30;99.90
16441;DHT22;8330;-33.858;151.184;2022-11-12T03:06:55;28.50;99.90
16441;DHT22;8330;-33.858;151.184;2022-11-12T03:09:26;28.70;99.90
16441;DHT22;8330;-33.858;151.184;2022-11-12T03:11:59;28.80;99.90
16441;DHT22;8330;-33.858;151.184;2022-11-12T03:14:31;28.70;99.90
16441;DHT22;8330;-33.858;151.184;2022-11-12T03:17:02;28.90;99.90
16441;DHT22;8330;-33.858;151.184;2022-11-12T03:19:33;29.00;99.90
16441;DHT22;8330;-33.858;151.184;2022-11-12T03:22:06;29.00;99.90
16441;DHT22;8330;-33.858;151.184;2022-11-12T03:24:37;29.00;99.90
16441;DHT22;8330;-33.858;151.184;2022-11-12T03:27:08;29.10;99.90
16441;DHT22;8330;-33.858;151.184;2022-11-12T03:29:39;29.20;99.90
16441;DHT22;8330;-33.858;151.184;2022-11-12T03:32:10;29.40;99.90
16441;DHT22;8330;-33.858;151.184;2022-11-12T03:34:41;29.50;99.90
16441;DHT22;8330;-33.858;151.184;2022-11-12T03:37:14;29.60;99.90
16441;DHT22;8330;-33.858;151.184;2022-11-12T03:39:45;29.70;99.90
16441;DHT22;8330;-33.858;151.184;2022-11-12T03:42:19;29.80;99.90
16441;DHT22;8330;-33.858;151.184;2022-11-12T03:44:50;29.80;99.90
16441;DHT22;8330;-33.858;151.184;2022-11-12T03:47:21;29.80;99.90
16441;DHT22;8330;-33.858;151.184;2022-11-12T03:49:52;29.80;99.90
16441;DHT22;8330;-33.858;151.184;2022-11-12T03:52:25;29.80;99.90
16441;DHT22;8330;-33.858;151.184;2022-11-12T03:54:55;29.90;99.90
16441;DHT22;8330;-33.858;151.184;2022-11-12T03:57:27;30.00;99.90
16441;DHT22;8330;-33.858;151.184;2022-11-12T03:59:58;30.10;99.90
16441;DHT22;8330;-33.858;151.184;2022-11-12T04:02:29;30.00;99.90
16441;DHT22;8330;-33.858;151.184;2022-11-12T04:05:00;30.00;99.90
16441;DHT22;8330;-33.858;151.184;2022-11-12T04:07:57;30.00;99.90
16441;DHT22;8330;-33.858;151.184;2022-11-12T04:10:43;30.00;99.90
16441;DHT22;8330;-33.858;151.184;2022-11-12T04:13:14;30.10;99.90
16441;DHT22;8330;-33.858;151.184;2022-11-12T04:16:01;30.00;99.90
16441;DHT22;8330;-33.858;151.184;2022-11-12T04:18:49;30.10;99.90
16441;DHT22;8330;-33.858;151.184;2022-11-12T04:21:41;30.20;99.90
16441;DHT22;8330;-33.858;151.184;2022-11-12T04:24:29;30.30;99.90
16441;DHT22;8330;-33.858;151.184;2022-11-12T04:27:17;30.30;99.90
16441;DHT22;8330;-33.858;151.184;2022-11-12T04:29:49;30.20;99.90
16441;DHT22;8330;-33.858;151.184;2022-11-12T04:32:40;30.40;99.90
16441;DHT22;8330;-33.858;151.184;2022-11-12T04:35:15;30.40;99.90
16441;DHT22;8330;-33.858;151.184;2022-11-12T04:37:45;30.50;99.90
16441;DHT22;8330;-33.858;151.184;2022-11-12T04:40:22;30.40;99.90
16441;DHT22;8330;-33.858;151.184;2022-11-12T04:43:10;30.20;99.90
16441;DHT22;8330;-33.858;151.184;2022-11-12T04:45:58;29.90;99.90
16441;DHT22;8330;-33.858;151.184;2022-11-12T04:48:29;30.00;99.90
16441;DHT22;8330;-33.858;151.184;2022-11-12T04:51:01;29.80;99.90
16441;DHT22;8330;-33.858;151.184;2022-11-12T04:53:53;29.60;99.90
16441;DHT22;8330;-33.858;151.184;2022-11-12T04:56:25;29.30;99.90
16441;DHT22;8330;-33.858;151.184;2022-11-12T04:58:56;29.10;99.90
16441;DHT22;8330;-33.858;151.184;2022-11-12T05:01:27;28.80;99.90
16441;DHT22;8330;-33.858;151.184;2022-11-12T05:03:59;28.80;99.90
16441;DHT22;8330;-33.858;151.184;2022-11-12T05:06:29;28.60;99.90
16441;DHT22;8330;-33.858;151.184;2022-11-12T05:09:19;28.50;99.90
16441;DHT22;8330;-33.858;151.184;2022-11-12T05:11:52;28.30;99.90
16441;DHT22;8330;-33.858;151.184;2022-11-12T05:14:24;28.20;99.90
16441;DHT22;8330;-33.858;151.184;2022-11-12T05:16:55;28.10;99.90
16441;DHT22;8330;-33.858;151.184;2022-11-12T05:19:26;28.10;99.90
16441;DHT22;8330;-33.858;151.184;2022-11-12T05:21:57;28.10;99.90
16441;DHT22;8330;-33.858;151.184;2022-11-12T05:24:38;27.90;99.90
16441;DHT22;8330;-33.858;151.184;2022-11-12T05:27:13;28.00;99.90
16441;DHT22;8330;-33.858;151.184;2022-11-12T05:29:45;28.10;99.90
16441;DHT22;8330;-33.858;151.184;2022-11-12T05:32:16;28.00;99.90
16441;DHT22;8330;-33.858;151.184;2022-11-12T05:34:47;28.00;99.90
16441;DHT22;8330;-33.858;151.184;2022-11-12T05:37:18;28.00;99.90
16441;DHT22;8330;-33.858;151.184;2022-11-12T05:39:49;28.10;99.90
16441;DHT22;8330;-33.858;151.184;2022-11-12T05:42:22;28.00;99.90
16441;DHT22;8330;-33.858;151.184;2022-11-12T05:44:53;27.80;99.90
16441;DHT22;8330;-33.858;151.184;2022-11-12T05:47:24;27.80;99.90
16441;DHT22;8330;-33.858;151.184;2022-11-12T05:49:54;27.80;99.90
16441;DHT22;8330;-33.858;151.184;2022-11-12T05:52:25;27.60;99.90
16441;DHT22;8330;-33.858;151.184;2022-11-12T05:54:56;27.50;99.90
16441;DHT22;8330;-33.858;151.184;2022-11-12T05:57:30;27.30;99.90
16441;DHT22;8330;-33.858;151.184;2022-11-12T06:00:01;27.00;99.90
16441;DHT22;8330;-33.858;151.184;2022-11-12T06:02:32;26.80;99.90
16441;DHT22;8330;-33.858;151.184;2022-11-12T06:05:04;26.60;99.90
16441;DHT22;8330;-33.858;151.184;2022-11-12T06:07:34;26.50;99.90
16441;DHT22;8330;-33.858;151.184;2022-11-12T06:10:06;26.40;99.90
16441;DHT22;8330;-33.858;151.184;2022-11-12T06:12:39;26.30;99.90
16441;DHT22;8330;-33.858;151.184;2022-11-12T06:15:10;26.20;99.90
16441;DHT22;8330;-33.858;151.184;2022-11-12T06:17:42;26.10;99.90
16441;DHT22;8330;-33.858;151.184;2022-11-12T06:20:13;26.00;99.90
16441;DHT22;8330;-33.858;151.184;2022-11-12T06:22:45;25.90;99.90
16441;DHT22;8330;-33.858;151.184;2022-11-12T06:25:16;25.80;99.90
16441;DHT22;8330;-33.858;151.184;2022-11-12T06:27:48;25.60;99.90
16441;DHT22;8330;-33.858;151.184;2022-11-12T06:30:19;25.60;99.90
16441;DHT22;8330;-33.858;151.184;2022-11-12T06:32:50;25.50;99.90
16441;DHT22;8330;-33.858;151.184;2022-11-12T06:35:22;25.40;99.90
16441;DHT22;8330;-33.858;151.184;2022-11-12T06:37:52;25.30;99.90
16441;DHT22;8330;-33.858;151.184;2022-11-12T06:40:24;25.20;99.90
16441;DHT22;8330;-33.858;151.184;2022-11-12T06:43:00;25.20;99.90
16441;DHT22;8330;-33.858;151.184;2022-11-12T06:45:31;25.00;99.90
16441;DHT22;8330;-33.858;151.184;2022-11-12T06:48:02;25.00;99.90
16441;DHT22;8330;-33.858;151.184;2022-11-12T06:50:32;25.00;99.90
16441;DHT22;8330;-33.858;151.184;2022-11-12T06:53:04;25.00;99.90
16441;DHT22;8330;-33.858;151.184;2022-11-12T06:55:35;24.90;99.90
16441;DHT22;8330;-33.858;151.184;2022-11-12T06:58:08;24.90;99.90
16441;DHT22;8330;-33.858;151.184;2022-11-12T07:00:39;24.80;99.90
16441;DHT22;8330;-33.858;151.184;2022-11-12T07:03:13;24.90;99.90
16441;DHT22;8330;-33.858;151.184;2022-11-12T07:05:45;24.90;99.90
16441;DHT22;8330;-33.858;151.184;2022-11-12T07:08:16;25.00;99.90
16441;DHT22;8330;-33.858;151.184;2022-11-12T07:10:47;24.90;99.90
16441;DHT22;8330;-33.858;151.184;2022-11-12T07:13:19;24.90;99.90
16441;DHT22;8330;-33.858;151.184;2022-11-12T07:15:51;24.90;99.90
16441;DHT22;8330;-33.858;151.184;2022-11-12T07:18:23;24.90;99.90
16441;DHT22;8330;-33.858;151.184;2022-11-12T07:20:58;25.00;99.90
16441;DHT22;8330;-33.858;151.184;2022-11-12T07:23:31;24.90;99.90
16441;DHT22;8330;-33.858;151.184;2022-11-12T07:26:03;24.90;99.90
16441;DHT22;8330;-33.858;151.184;2022-11-12T07:28:37;24.90;99.90
16441;DHT22;8330;-33.858;151.184;2022-11-12T07:31:10;24.80;99.90
16441;DHT22;8330;-33.858;151.184;2022-11-12T07:33:42;24.70;99.90
16441;DHT22;8330;-33.858;151.184;2022-11-12T07:36:16;24.70;99.90
16441;DHT22;8330;-33.858;151.184;2022-11-12T07:38:49;24.60;99.90
16441;DHT22;8330;-33.858;151.184;2022-11-12T07:41:22;24.50;99.90
16441;DHT22;8330;-33.858;151.184;2022-11-12T07:43:55;24.40;99.90
16441;DHT22;8330;-33.858;151.184;2022-11-12T07:46:27;24.40;99.90
16441;DHT22;8330;-33.858;151.184;2022-11-12T07:48:58;24.40;99.90
16441;DHT22;8330;-33.858;151.184;2022-11-12T07:51:29;24.30;99.90
16441;DHT22;8330;-33.858;151.184;2022-11-12T07:54:00;24.30;99.90
16441;DHT22;8330;-33.858;151.184;2022-11-12T07:56:31;24.20;99.90
16441;DHT22;8330;-33.858;151.184;2022-11-12T07:59:05;24.30;99.90
16441;DHT22;8330;-33.858;151.184;2022-11-12T08:01:39;24.10;99.90
16441;DHT22;8330;-33.858;151.184;2022-11-12T08:04:10;24.00;99.90
16441;DHT22;8330;-33.858;151.184;2022-11-12T08:06:41;24.00;99.90
16441;DHT22;8330;-33.858;151.184;2022-11-12T08:09:12;23.90;99.90
16441;DHT22;8330;-33.858;151.184;2022-11-12T08:11:43;23.80;99.90
16441;DHT22;8330;-33.858;151.184;2022-11-12T08:14:16;23.70;99.90
16441;DHT22;8330;-33.858;151.184;2022-11-12T08:16:47;23.70;99.90
16441;DHT22;8330;-33.858;151.184;2022-11-12T08:19:18;23.70;99.90
16441;DHT22;8330;-33.858;151.184;2022-11-12T08:21:49;23.70;99.90
16441;DHT22;8330;-33.858;151.184;2022-11-12T08:24:19;23.60;99.90
16441;DHT22;8330;-33.858;151.184;2022-11-12T08:26:50;23.60;99.90
16441;DHT22;8330;-33.858;151.184;2022-11-12T08:29:23;23.60;99.90
16441;DHT22;8330;-33.858;151.184;2022-11-12T08:31:54;23.60;99.90
16441;DHT22;8330;-33.858;151.184;2022-11-12T08:34:25;23.60;99.90
16441;DHT22;8330;-33.858;151.184;2022-11-12T08:36:56;23.50;99.90
16441;DHT22;8330;-33.858;151.184;2022-11-12T08:39:27;23.40;99.90
16441;DHT22;8330;-33.858;151.184;2022-11-12T08:41:58;23.50;99.90
16441;DHT22;8330;-33.858;151.184;2022-11-12T08:44:31;23.50;99.90
16441;DHT22;8330;-33.858;151.184;2022-11-12T08:47:02;23.50;99.90
16441;DHT22;8330;-33.858;151.184;2022-11-12T08:49:34;23.40;99.90
16441;DHT22;8330;-33.858;151.184;2022-11-12T08:52:05;23.40;99.90
16441;DHT22;8330;-33.858;151.184;2022-11-12T08:54:36;23.40;99.90
16441;DHT22;8330;-33.858;151.184;2022-11-12T08:57:06;23.40;99.90
16441;DHT22;8330;-33.858;151.184;2022-11-12T08:59:39;23.40;99.90
16441;DHT22;8330;-33.858;151.184;2022-11-12T09:02:12;23.40;99.90
16441;DHT22;8330;-33.858;151.184;2022-11-12T09:04:44;23.30;99.90
16441;DHT22;8330;-33.858;151.184;2022-11-12T09:07:15;23.30;99.90
16441;DHT22;8330;-33.858;151.184;2022-11-12T09:09:45;23.20;99.90
16441;DHT22;8330;-33.858;151.184;2022-11-12T09:12:16;23.30;99.90
16441;DHT22;8330;-33.858;151.184;2022-11-12T09:14:49;23.30;99.90
16441;DHT22;8330;-33.858;151.184;2022-11-12T09:17:20;23.30;99.90
16441;DHT22;8330;-33.858;151.184;2022-11-12T09:19:51;23.30;99.90
16441;DHT22;8330;-33.858;151.184;2022-11-12T09:22:23;23.30;99.90
16441;DHT22;8330;-33.858;151.184;2022-11-12T09:24:54;23.40;99.90
16441;DHT22;8330;-33.858;151.184;2022-11-12T09:27:27;23.30;99.90
16441;DHT22;8330;-33.858;151.184;2022-11-12T09:30:01;23.40;99.90
16441;DHT22;8330;-33.858;151.184;2022-11-12T09:32:33;23.30;99.90
16441;DHT22;8330;-33.858;151.184;2022-11-12T09:35:04;23.30;99.90
16441;DHT22;8330;-33.858;151.184;2022-11-12T09:37:38;23.30;99.90
16441;DHT22;8330;-33.858;151.184;2022-11-12T09:40:16;23.30;99.90
16441;DHT22;8330;-33.858;151.184;2022-11-12T09:42:51;23.30;99.90
16441;DHT22;8330;-33.858;151.184;2022-11-12T09:45:27;23.30;99.90
16441;DHT22;8330;-33.858;151.184;2022-11-12T09:48:04;23.20;99.90
16441;DHT22;8330;-33.858;151.184;2022-11-12T09:50:39;23.20;99.90
16441;DHT22;8330;-33.858;151.184;2022-11-12T09:53:15;23.20;99.90
16441;DHT22;8330;-33.858;151.184;2022-11-12T09:55:48;23.20;99.90
16441;DHT22;8330;-33.858;151.184;2022-11-12T09:58:20;23.20;99.90
16441;DHT22;8330;-33.858;151.184;2022-11-12T10:00:57;23.20;99.90
16441;DHT22;8330;-33.858;151.184;2022-11-12T10:03:35;23.20;99.90
16441;DHT22;8330;-33.858;151.184;2022-11-12T10:06:11;23.20;99.90
16441;DHT22;8330;-33.858;151.184;2022-11-12T10:08:51;23.30;99.90
16441;DHT22;8330;-33.858;151.184;2022-11-12T10:11:46;23.30;99.90
16441;DHT22;8330;-33.858;151.184;2022-11-12T10:18:00;23.20;99.90
16441;DHT22;8330;-33.858;151.184;2022-11-12T10:20:37;23.30;99.90
16441;DHT22;8330;-33.858;151.184;2022-11-12T10:23:18;23.20;99.90
16441;DHT22;8330;-33.858;151.184;2022-11-12T10:25:51;23.20;99.90
16441;DHT22;8330;-33.858;151.184;2022-11-12T10:28:27;23.20;99.90
16441;DHT22;8330;-33.858;151.184;2022-11-12T10:31:03;23.20;99.90
16441;DHT22;8330;-33.858;151.184;2022-11-12T10:33:38;23.20;99.90
16441;DHT22;8330;-33.858;151.184;2022-11-12T10:36:27;23.20;99.90
16441;DHT22;8330;-33.858;151.184;2022-11-12T10:39:00;23.20;99.90
16441;DHT22;8330;-33.858;151.184;2022-11-12T10:41:33;23.20;99.90
16441;DHT22;8330;-33.858;151.184;2022-11-12T10:44:05;23.20;99.90
16441;DHT22;8330;-33.858;151.184;2022-11-12T10:46:37;23.10;99.90
16441;DHT22;8330;-33.858;151.184;2022-11-12T10:49:23;23.10;99.90
16441;DHT22;8330;-33.858;151.184;2022-11-12T10:51:57;23.10;99.90
16441;DHT22;8330;-33.858;151.184;2022-11-12T10:54:34;23.10;99.90
16441;DHT22;8330;-33.858;151.184;2022-11-12T10:57:19;23.10;99.90
16441;DHT22;8330;-33.858;151.184;2022-11-12T11:00:07;23.10;99.90
16441;DHT22;8330;-33.858;151.184;2022-11-12T11:02:46;23.10;99.90
16441;DHT22;8330;-33.858;151.184;2022-11-12T11:05:37;23.10;99.90
16441;DHT22;8330;-33.858;151.184;2022-11-12T11:08:32;23.00;99.90
16441;DHT22;8330;-33.858;151.184;2022-11-12T11:11:22;23.00;99.90
16441;DHT22;8330;-33.858;151.184;2022-11-12T11:13:57;23.00;99.90
16441;DHT22;8330;-33.858;151.184;2022-11-12T11:16:50;23.00;99.90
16441;DHT22;8330;-33.858;151.184;2022-11-12T11:19:21;23.00;99.90
16441;DHT22;8330;-33.858;151.184;2022-11-12T11:22:09;23.00;99.90
16441;DHT22;8330;-33.858;151.184;2022-11-12T11:24:48;22.90;99.90
16441;DHT22;8330;-33.858;151.184;2022-11-12T11:27:31;22.90;99.90
16441;DHT22;8330;-33.858;151.184;2022-11-12T11:30:10;22.90;99.90
16441;DHT22;8330;-33.858;151.184;2022-11-12T11:35:54;22.90;99.90
16441;DHT22;8330;-33.858;151.184;2022-11-12T11:38:41;22.80;99.90
16441;DHT22;8330;-33.858;151.184;2022-11-12T11:41:32;22.80;99.90
16441;DHT22;8330;-33.858;151.184;2022-11-12T11:44:18;22.80;99.90
16441;DHT22;8330;-33.858;151.184;2022-11-12T11:47:02;22.80;99.90
16441;DHT22;8330;-33.858;151.184;2022-11-12T11:49:45;22.70;99.90
16441;DHT22;8330;-33.858;151.184;2022-11-12T11:52:41;22.70;99.90
16441;DHT22;8330;-33.858;151.184;2022-11-12T11:55:42;22.80;99.90
16441;DHT22;8330;-33.858;151.184;2022-11-12T11:58:40;22.80;99.90
16441;DHT22;8330;-33.858;151.184;2022-11-12T12:01:19;22.70;99.90
16441;DHT22;8330;-33.858;151.184;2022-11-12T12:04:15;22.70;99.90
16441;DHT22;8330;-33.858;151.184;2022-11-12T12:07:03;22.70;99.90
16441;DHT22;8330;-33.858;151.184;2022-11-12T12:09:43;22.70;99.90
16441;DHT22;8330;-33.858;151.184;2022-11-12T12:12:24;22.70;99.90
16441;DHT22;8330;-33.858;151.184;2022-11-12T12:15:18;22.60;99.90
16441;DHT22;8330;-33.858;151.184;2022-11-12T12:17:57;22.60;99.90
16441;DHT22;8330;-33.858;151.184;2022-11-12T12:20:38;22.60;99.90
16441;DHT22;8330;-33.858;151.184;2022-11-12T12:23:17;22.60;99.90
16441;DHT22;8330;-33.858;151.184;2022-11-12T12:25:51;22.60;99.90
16441;DHT22;8330;-33.858;151.184;2022-11-12T12:28:32;22.50;99.90
16441;DHT22;8330;-33.858;151.184;2022-11-12T12:31:06;22.50;99.90
16441;DHT22;8330;-33.858;151.184;2022-11-12T12:33:45;22.50;99.90
16441;DHT22;8330;-33.858;151.184;2022-11-12T12:36:20;22.40;99.90
16441;DHT22;8330;-33.858;151.184;2022-11-12T12:39:11;22.40;99.90
16441;DHT22;8330;-33.858;151.184;2022-11-12T12:41:47;22.40;99.90
16441;DHT22;8330;-33.858;151.184;2022-11-12T12:44:21;22.40;99.90
16441;DHT22;8330;-33.858;151.184;2022-11-12T12:47:13;22.50;99.90
16441;DHT22;8330;-33.858;151.184;2022-11-12T12:49:44;22.50;99.90
16441;DHT22;8330;-33.858;151.184;2022-11-12T12:52:17;22.50;99.90
16441;DHT22;8330;-33.858;151.184;2022-11-12T12:54:58;22.40;99.90
16441;DHT22;8330;-33.858;151.184;2022-11-12T12:57:36;22.40;99.90
16441;DHT22;8330;-33.858;151.184;2022-11-12T13:00:33;22.40;99.90
16441;DHT22;8330;-33.858;151.184;2022-11-12T13:03:05;22.40;99.90
16441;DHT22;8330;-33.858;151.184;2022-11-12T13:05:37;22.40;99.90
16441;DHT22;8330;-33.858;151.184;2022-11-12T13:08:11;22.30;99.90
16441;DHT22;8330;-33.858;151.184;2022-11-12T13:10:48;22.30;99.90
16441;DHT22;8330;-33.858;151.184;2022-11-12T13:13:33;22.40;99.90
16441;DHT22;8330;-33.858;151.184;2022-11-12T13:16:07;22.40;99.90
16441;DHT22;8330;-33.858;151.184;2022-11-12T13:19:00;22.40;99.90
16441;DHT22;8330;-33.858;151.184;2022-11-12T13:21:31;22.40;99.90
16441;DHT22;8330;-33.858;151.184;2022-11-12T13:24:02;22.40;99.90
16441;DHT22;8330;-33.858;151.184;2022-11-12T13:26:45;22.30;99.90
16441;DHT22;8330;-33.858;151.184;2022-11-12T13:29:24;22.30;99.90
16441;DHT22;8330;-33.858;151.184;2022-11-12T13:32:38;22.30;99.90
16441;DHT22;8330;-33.858;151.184;2022-11-12T13:35:30;22.30;99.90
16441;DHT22;8330;-33.858;151.184;2022-11-12T13:38:09;22.20;99.90
16441;DHT22;8330;-33.858;151.184;2022-11-12T13:40:48;22.20;99.90
16441;DHT22;8330;-33.858;151.184;2022-11-12T13:43:30;22.20;99.90
16441;DHT22;8330;-33.858;151.184;2022-11-12T13:46:26;22.20;99.90
16441;DHT22;8330;-33.858;151.184;2022-11-12T13:49:02;22.20;99.90
16441;DHT22;8330;-33.858;151.184;2022-11-12T13:51:42;22.20;99.90
16441;DHT22;8330;-33.858;151.184;2022-11-12T13:54:30;22.20;99.90
16441;DHT22;8330;-33.858;151.184;2022-11-12T13:57:22;22.10;99.90
16441;DHT22;8330;-33.858;151.184;2022-11-12T14:00:21;22.10;99.90
16441;DHT22;8330;-33.858;151.184;2022-11-12T14:02:54;22.10;99.90
16441;DHT22;8330;-33.858;151.184;2022-11-12T14:05:28;22.10;99.90
16441;DHT22;8330;-33.858;151.184;2022-11-12T14:08:17;22.10;99.90
16441;DHT22;8330;-33.858;151.184;2022-11-12T14:11:05;22.10;99.90
16441;DHT22;8330;-33.858;151.184;2022-11-12T14:13:51;22.10;99.90
16441;DHT22;8330;-33.858;151.184;2022-11-12T14:16:40;22.10;99.90
16441;DHT22;8330;-33.858;151.184;2022-11-12T14:22:22;22.10;99.90
16441;DHT22;8330;-33.858;151.184;2022-11-12T14:24:59;22.10;99.90
16441;DHT22;8330;-33.858;151.184;2022-11-12T14:27:35;22.10;99.90
16441;DHT22;8330;-33.858;151.184;2022-11-12T14:30:17;22.10;99.90
16441;DHT22;8330;-33.858;151.184;2022-11-12T14:32:51;22.00;99.90
16441;DHT22;8330;-33.858;151.184;2022-11-12T14:35:34;22.10;99.90
16441;DHT22;8330;-33.858;151.184;2022-11-12T14:38:13;22.10;99.90
16441;DHT22;8330;-33.858;151.184;2022-11-12T14:40:48;22.00;99.90
16441;DHT22;8330;-33.858;151.184;2022-11-12T14:43:32;22.00;99.90
16441;DHT22;8330;-33.858;151.184;2022-11-12T14:46:05;22.00;99.90
16441;DHT22;8330;-33.858;151.184;2022-11-12T14:48:43;22.00;99.90
16441;DHT22;8330;-33.858;151.184;2022-11-12T14:51:15;22.00;99.90
16441;DHT22;8330;-33.858;151.184;2022-11-12T14:53:53;22.00;99.90
16441;DHT22;8330;-33.858;151.184;2022-11-12T14:56:30;22.00;99.90
16441;DHT22;8330;-33.858;151.184;2022-11-12T14:59:04;22.00;99.90
16441;DHT22;8330;-33.858;151.184;2022-11-12T15:01:37;21.90;99.90
16441;DHT22;8330;-33.858;151.184;2022-11-12T15:04:19;21.90;99.90
16441;DHT22;8330;-33.858;151.184;2022-11-12T15:06:55;21.90;99.90
16441;DHT22;8330;-33.858;151.184;2022-11-12T15:09:35;21.80;99.90
16441;DHT22;8330;-33.858;151.184;2022-11-12T15:12:10;21.80;99.90
16441;DHT22;8330;-33.858;151.184;2022-11-12T15:14:42;21.80;99.90
16441;DHT22;8330;-33.858;151.184;2022-11-12T15:17:25;21.80;99.90
16441;DHT22;8330;-33.858;151.184;2022-11-12T15:20:02;21.80;99.90
16441;DHT22;8330;-33.858;151.184;2022-11-12T15:22:34;21.80;99.90
16441;DHT22;8330;-33.858;151.184;2022-11-12T15:25:20;21.80;99.90
16441;DHT22;8330;-33.858;151.184;2022-11-12T15:27:51;21.70;99.90
16441;DHT22;8330;-33.858;151.184;2022-11-12T15:30:25;21.80;99.90
16441;DHT22;8330;-33.858;151.184;2022-11-12T15:33:12;21.80;99.90
16441;DHT22;8330;-33.858;151.184;2022-11-12T15:35:55;21.80;99.90
16441;DHT22;8330;-33.858;151.184;2022-11-12T15:38:28;21.80;99.90
16441;DHT22;8330;-33.858;151.184;2022-11-12T15:41:04;21.80;99.90
16441;DHT22;8330;-33.858;151.184;2022-11-12T15:43:37;21.80;99.90
16441;DHT22;8330;-33.858;151.184;2022-11-12T15:46:12;21.80;99.90
16441;DHT22;8330;-33.858;151.184;2022-11-12T15:48:44;21.80;99.90
16441;DHT22;8330;-33.858;151.184;2022-11-12T15:51:16;21.80;99.90
16441;DHT22;8330;-33.858;151.184;2022-11-12T15:53:47;21.80;99.90
16441;DHT22;8330;-33.858;151.184;2022-11-12T15:56:20;21.80;99.90
16441;DHT22;8330;-33.858;151.184;2022-11-12T15:58:51;21.80;99.90
16441;DHT22;8330;-33.858;151.184;2022-11-12T16:01:22;21.80;99.90
16441;DHT22;8330;-33.858;151.184;2022-11-12T16:03:52;21.80;99.90